sensor_id;sensor_type;location;lat;lon;timestamp;temperature;humidity
69054;DHT22;56125;52.242;4.756;2023-07-29T00:01:23;21.80;67.10
69054;DHT22;56125;52.242;4.756;2023-07-29T00:06:24;21.80;67.00
69054;DHT22;56125;52.242;4.756;2023-07-29T00:11:25;21.80;66.90
69054;DHT22;56125;52.242;4.756;2023-07-29T00:16:26;21.80;66.80
69054;DHT22;56125;52.242;4.756;2023-07-29T00:21:27;21.80;66.80
69054;DHT22;56125;52.242;4.756;2023-07-29T00:26:28;21.80;66.70
69054;DHT22;56125;52.242;4.756;2023-07-29T00:31:32;21.80;66.70
69054;DHT22;56125;52.242;4.756;2023-07-29T00:36:33;21.80;66.70
69054;DHT22;56125;52.242;4.756;2023-07-29T00:41:34;21.80;66.70
69054;DHT22;56125;52.242;4.756;2023-07-29T00:46:36;21.80;66.60
69054;DHT22;56125;52.242;4.756;2023-07-29T00:51:39;21.80;66.50
69054;DHT22;56125;52.242;4.756;2023-07-29T00:56:40;21.80;66.50
69054;DHT22;56125;52.242;4.756;2023-07-29T01:01:42;21.80;66.50
69054;DHT22;56125;52.242;4.756;2023-07-29T01:07:21;21.80;66.50
69054;DHT22;56125;52.242;4.756;2023-07-29T01:12:49;21.70;66.40
69054;DHT22;56125;52.242;4.756;2023-07-29T01:17:59;21.70;66.40
69054;DHT22;56125;52.242;4.756;2023-07-29T01:23:03;21.70;66.40
69054;DHT22;56125;52.242;4.756;2023-07-29T01:28:04;21.70;66.30
69054;DHT22;56125;52.242;4.756;2023-07-29T01:33:14;21.70;66.30
69054;DHT22;56125;52.242;4.756;2023-07-29T01:38:28;21.70;66.10
69054;DHT22;56125;52.242;4.756;2023-07-29T01:43:33;21.70;66.00
69054;DHT22;56125;52.242;4.756;2023-07-29T01:48:34;21.70;65.90
69054;DHT22;56125;52.242;4.756;2023-07-29T01:53:35;21.70;65.80
69054;DHT22;56125;52.242;4.756;2023-07-29T01:58:36;21.70;65.70
69054;DHT22;56125;52.242;4.756;2023-07-29T02:03:37;21.70;65.60
69054;DHT22;56125;52.242;4.756;2023-07-29T02:08:38;21.60;65.60
69054;DHT22;56125;52.242;4.756;2023-07-29T02:13:41;21.70;65.60
69054;DHT22;56125;52.242;4.756;2023-07-29T02:18:42;21.70;65.60
69054;DHT22;56125;52.242;4.756;2023-07-29T02:23:43;21.70;65.60
69054;DHT22;56125;52.242;4.756;2023-07-29T02:28:44;21.60;65.50
69054;DHT22;56125;52.242;4.756;2023-07-29T02:33:46;21.60;65.50
69054;DHT22;56125;52.242;4.756;2023-07-29T02:38:47;21.70;65.60
69054;DHT22;56125;52.242;4.756;2023-07-29T02:43:49;21.60;65.60
69054;DHT22;56125;52.242;4.756;2023-07-29T02:48:50;21.60;65.60
69054;DHT22;56125;52.242;4.756;2023-07-29T02:53:51;21.60;65.60
69054;DHT22;56125;52.242;4.756;2023-07-29T02:58:53;21.60;65.80
69054;DHT22;56125;52.242;4.756;2023-07-29T03:03:54;21.60;65.70
69054;DHT22;56125;52.242;4.756;2023-07-29T03:08:55;21.60;65.70
69054;DHT22;56125;52.242;4.756;2023-07-29T03:13:56;21.60;65.70
69054;DHT22;56125;52.242;4.756;2023-07-29T03:18:57;21.60;65.70
69054;DHT22;56125;52.242;4.756;2023-07-29T03:24:00;21.60;65.70
69054;DHT22;56125;52.242;4.756;2023-07-29T03:29:01;21.60;65.70
69054;DHT22;56125;52.242;4.756;2023-07-29T03:34:02;21.60;65.70
69054;DHT22;56125;52.242;4.756;2023-07-29T03:39:03;21.60;65.70
69054;DHT22;56125;52.242;4.756;2023-07-29T03:44:04;21.60;65.60
69054;DHT22;56125;52.242;4.756;2023-07-29T03:49:05;21.60;65.70
69054;DHT22;56125;52.242;4.756;2023-07-29T03:54:06;21.60;65.60
69054;DHT22;56125;52.242;4.756;2023-07-29T03:59:07;21.60;65.70
69054;DHT22;56125;52.242;4.756;2023-07-29T04:04:08;21.50;65.70
69054;DHT22;56125;52.242;4.756;2023-07-29T04:09:09;21.60;65.70
69054;DHT22;56125;52.242;4.756;2023-07-29T04:14:10;21.50;65.70
69054;DHT22;56125;52.242;4.756;2023-07-29T04:19:11;21.50;65.50
69054;DHT22;56125;52.242;4.756;2023-07-29T04:24:12;21.50;65.70
69054;DHT22;56125;52.242;4.756;2023-07-29T04:29:13;21.50;65.50
69054;DHT22;56125;52.242;4.756;2023-07-29T04:34:15;21.50;65.60
69054;DHT22;56125;52.242;4.756;2023-07-29T04:39:16;21.50;65.60
69054;DHT22;56125;52.242;4.756;2023-07-29T04:44:17;21.50;65.60
69054;DHT22;56125;52.242;4.756;2023-07-29T04:49:18;21.50;65.70
69054;DHT22;56125;52.242;4.756;2023-07-29T04:54:19;21.50;65.70
69054;DHT22;56125;52.242;4.756;2023-07-29T04:59:21;21.50;65.90
69054;DHT22;56125;52.242;4.756;2023-07-29T05:04:23;21.50;65.80
69054;DHT22;56125;52.242;4.756;2023-07-29T05:09:24;21.50;65.80
69054;DHT22;56125;52.242;4.756;2023-07-29T05:14:25;21.50;65.90
69054;DHT22;56125;52.242;4.756;2023-07-29T05:19:26;21.50;65.90
69054;DHT22;56125;52.242;4.756;2023-07-29T05:24:27;22.30;66.40
69054;DHT22;56125;52.242;4.756;2023-07-29T05:29:28;21.50;65.90
69054;DHT22;56125;52.242;4.756;2023-07-29T05:34:29;21.50;65.90
69054;DHT22;56125;52.242;4.756;2023-07-29T05:39:30;21.50;65.90
69054;DHT22;56125;52.242;4.756;2023-07-29T05:44:33;21.50;66.00
69054;DHT22;56125;52.242;4.756;2023-07-29T05:49:34;21.50;65.90
69054;DHT22;56125;52.242;4.756;2023-07-29T05:54:35;21.50;65.90
69054;DHT22;56125;52.242;4.756;2023-07-29T05:59:36;21.50;65.90
69054;DHT22;56125;52.242;4.756;2023-07-29T06:04:37;21.50;65.90
69054;DHT22;56125;52.242;4.756;2023-07-29T06:09:38;21.50;65.90
69054;DHT22;56125;52.242;4.756;2023-07-29T06:14:40;21.50;67.20
69054;DHT22;56125;52.242;4.756;2023-07-29T06:19:41;21.50;66.00
69054;DHT22;56125;52.242;4.756;2023-07-29T06:24:42;21.50;66.10
69054;DHT22;56125;52.242;4.756;2023-07-29T06:29:43;21.60;66.30
69054;DHT22;56125;52.242;4.756;2023-07-29T06:34:44;21.50;66.30
69054;DHT22;56125;52.242;4.756;2023-07-29T06:39:45;21.50;66.30
69054;DHT22;56125;52.242;4.756;2023-07-29T06:44:46;21.50;66.30
69054;DHT22;56125;52.242;4.756;2023-07-29T06:49:47;21.50;66.50
69054;DHT22;56125;52.242;4.756;2023-07-29T06:54:48;21.50;66.40
69054;DHT22;56125;52.242;4.756;2023-07-29T06:59:49;21.50;66.50
69054;DHT22;56125;52.242;4.756;2023-07-29T07:04:50;21.60;66.60
69054;DHT22;56125;52.242;4.756;2023-07-29T07:09:51;21.50;66.50
69054;DHT22;56125;52.242;4.756;2023-07-29T07:14:52;21.60;66.80
69054;DHT22;56125;52.242;4.756;2023-07-29T07:19:53;21.60;66.60
69054;DHT22;56125;52.242;4.756;2023-07-29T07:24:54;21.60;66.50
69054;DHT22;56125;52.242;4.756;2023-07-29T07:29:55;21.60;66.60
69054;DHT22;56125;52.242;4.756;2023-07-29T07:34:56;21.60;67.50
69054;DHT22;56125;52.242;4.756;2023-07-29T07:39:57;21.60;68.00
69054;DHT22;56125;52.242;4.756;2023-07-29T07:44:58;21.60;68.00
69054;DHT22;56125;52.242;4.756;2023-07-29T07:49:59;21.60;68.50
69054;DHT22;56125;52.242;4.756;2023-07-29T07:55:01;21.60;68.30
69054;DHT22;56125;52.242;4.756;2023-07-29T08:00:02;21.60;68.10
69054;DHT22;56125;52.242;4.756;2023-07-29T08:05:05;21.60;68.00
69054;DHT22;56125;52.242;4.756;2023-07-29T08:10:06;21.60;67.70
69054;DHT22;56125;52.242;4.756;2023-07-29T08:15:08;21.60;67.20
69054;DHT22;56125;52.242;4.756;2023-07-29T08:20:09;21.60;67.00
69054;DHT22;56125;52.242;4.756;2023-07-29T08:25:10;21.60;66.80
69054;DHT22;56125;52.242;4.756;2023-07-29T08:30:11;21.60;66.80
69054;DHT22;56125;52.242;4.756;2023-07-29T08:35:12;21.60;67.80
69054;DHT22;56125;52.242;4.756;2023-07-29T08:40:13;21.60;66.50
69054;DHT22;56125;52.242;4.756;2023-07-29T08:45:17;21.60;66.60
69054;DHT22;56125;52.242;4.756;2023-07-29T08:50:18;21.60;66.50
69054;DHT22;56125;52.242;4.756;2023-07-29T08:55:20;21.60;66.60
69054;DHT22;56125;52.242;4.756;2023-07-29T09:00:22;21.60;66.60
69054;DHT22;56125;52.242;4.756;2023-07-29T09:05:23;21.60;66.70
69054;DHT22;56125;52.242;4.756;2023-07-29T09:10:26;21.60;66.60
69054;DHT22;56125;52.242;4.756;2023-07-29T09:15:28;21.60;66.50
69054;DHT22;56125;52.242;4.756;2023-07-29T09:20:30;21.60;66.50
69054;DHT22;56125;52.242;4.756;2023-07-29T09:25:31;21.60;66.40
69054;DHT22;56125;52.242;4.756;2023-07-29T09:30:32;21.60;66.40
69054;DHT22;56125;52.242;4.756;2023-07-29T09:35:34;21.60;66.30
69054;DHT22;56125;52.242;4.756;2023-07-29T09:40:37;21.60;65.80
69054;DHT22;56125;52.242;4.756;2023-07-29T09:45:38;21.60;65.90
69054;DHT22;56125;52.242;4.756;2023-07-29T09:50:40;21.60;66.60
69054;DHT22;56125;52.242;4.756;2023-07-29T09:55:47;21.60;65.80
69054;DHT22;56125;52.242;4.756;2023-07-29T10:00:49;21.60;65.80
69054;DHT22;56125;52.242;4.756;2023-07-29T10:05:50;22.10;66.20
69054;DHT22;56125;52.242;4.756;2023-07-29T10:10:52;21.70;66.10
69054;DHT22;56125;52.242;4.756;2023-07-29T10:15:57;21.60;66.00
69054;DHT22;56125;52.242;4.756;2023-07-29T10:20:59;21.70;66.20
69054;DHT22;56125;52.242;4.756;2023-07-29T10:26:05;21.60;66.10
69054;DHT22;56125;52.242;4.756;2023-07-29T10:31:07;21.70;66.10
69054;DHT22;56125;52.242;4.756;2023-07-29T10:36:08;21.70;66.00
69054;DHT22;56125;52.242;4.756;2023-07-29T10:41:10;21.70;66.30
69054;DHT22;56125;52.242;4.756;2023-07-29T10:46:21;21.70;66.60
69054;DHT22;56125;52.242;4.756;2023-07-29T10:56:34;21.70;66.60
69054;DHT22;56125;52.242;4.756;2023-07-29T11:01:35;21.70;67.00
69054;DHT22;56125;52.242;4.756;2023-07-29T11:12:43;21.70;67.70
69054;DHT22;56125;52.242;4.756;2023-07-29T11:18:15;21.70;67.30
69054;DHT22;56125;52.242;4.756;2023-07-29T11:23:16;21.70;67.90
69054;DHT22;56125;52.242;4.756;2023-07-29T11:28:18;21.70;67.70
69054;DHT22;56125;52.242;4.756;2023-07-29T11:33:20;21.70;67.50
69054;DHT22;56125;52.242;4.756;2023-07-29T11:38:22;21.70;67.20
69054;DHT22;56125;52.242;4.756;2023-07-29T11:43:23;21.70;67.30
69054;DHT22;56125;52.242;4.756;2023-07-29T11:48:32;21.70;67.40
69054;DHT22;56125;52.242;4.756;2023-07-29T11:53:33;21.70;67.60
69054;DHT22;56125;52.242;4.756;2023-07-29T11:58:34;21.70;67.80
69054;DHT22;56125;52.242;4.756;2023-07-29T12:03:35;21.70;68.00
69054;DHT22;56125;52.242;4.756;2023-07-29T12:08:36;21.70;68.00
69054;DHT22;56125;52.242;4.756;2023-07-29T12:13:38;21.70;68.60
69054;DHT22;56125;52.242;4.756;2023-07-29T12:18:39;21.70;68.70
69054;DHT22;56125;52.242;4.756;2023-07-29T12:23:40;21.70;68.70
69054;DHT22;56125;52.242;4.756;2023-07-29T12:28:45;21.70;68.90
69054;DHT22;56125;52.242;4.756;2023-07-29T12:33:46;21.80;68.80
69054;DHT22;56125;52.242;4.756;2023-07-29T12:38:48;21.80;70.10
69054;DHT22;56125;52.242;4.756;2023-07-29T12:43:49;21.80;69.50
69054;DHT22;56125;52.242;4.756;2023-07-29T12:48:50;21.80;69.60
69054;DHT22;56125;52.242;4.756;2023-07-29T12:53:51;21.80;69.70
69054;DHT22;56125;52.242;4.756;2023-07-29T12:58:52;21.80;69.90
69054;DHT22;56125;52.242;4.756;2023-07-29T13:03:54;21.80;69.90
69054;DHT22;56125;52.242;4.756;2023-07-29T13:08:55;22.00;70.20
69054;DHT22;56125;52.242;4.756;2023-07-29T13:13:56;21.90;70.30
69054;DHT22;56125;52.242;4.756;2023-07-29T13:18:57;21.90;70.10
69054;DHT22;56125;52.242;4.756;2023-07-29T13:23:58;21.90;70.70
69054;DHT22;56125;52.242;4.756;2023-07-29T13:28:59;21.90;69.80
69054;DHT22;56125;52.242;4.756;2023-07-29T13:34:00;21.90;70.70
69054;DHT22;56125;52.242;4.756;2023-07-29T13:39:01;21.90;69.80
69054;DHT22;56125;52.242;4.756;2023-07-29T13:44:02;21.90;69.90
69054;DHT22;56125;52.242;4.756;2023-07-29T13:49:03;21.90;70.20
69054;DHT22;56125;52.242;4.756;2023-07-29T13:54:04;21.90;69.90
69054;DHT22;56125;52.242;4.756;2023-07-29T13:59:05;21.90;70.50
69054;DHT22;56125;52.242;4.756;2023-07-29T14:04:06;21.90;69.50
69054;DHT22;56125;52.242;4.756;2023-07-29T14:09:07;21.90;69.80
69054;DHT22;56125;52.242;4.756;2023-07-29T14:14:09;21.90;70.30
69054;DHT22;56125;52.242;4.756;2023-07-29T14:19:10;22.00;69.40
69054;DHT22;56125;52.242;4.756;2023-07-29T14:24:11;22.00;69.10
69054;DHT22;56125;52.242;4.756;2023-07-29T14:29:12;21.90;68.50
69054;DHT22;56125;52.242;4.756;2023-07-29T14:34:13;21.90;68.80
69054;DHT22;56125;52.242;4.756;2023-07-29T14:39:14;22.50;68.60
69054;DHT22;56125;52.242;4.756;2023-07-29T14:44:15;22.00;68.70
69054;DHT22;56125;52.242;4.756;2023-07-29T14:49:16;22.00;69.00
69054;DHT22;56125;52.242;4.756;2023-07-29T14:54:17;22.00;68.20
69054;DHT22;56125;52.242;4.756;2023-07-29T14:59:18;22.00;67.90
69054;DHT22;56125;52.242;4.756;2023-07-29T15:04:19;22.00;67.60
69054;DHT22;56125;52.242;4.756;2023-07-29T15:09:20;22.00;67.10
69054;DHT22;56125;52.242;4.756;2023-07-29T15:14:21;22.00;66.80
69054;DHT22;56125;52.242;4.756;2023-07-29T15:19:22;22.00;66.60
69054;DHT22;56125;52.242;4.756;2023-07-29T15:24:23;21.50;66.20
69054;DHT22;56125;52.242;4.756;2023-07-29T15:29:24;22.00;66.50
69054;DHT22;56125;52.242;4.756;2023-07-29T15:34:25;22.00;66.60
69054;DHT22;56125;52.242;4.756;2023-07-29T15:39:28;22.00;66.50
69054;DHT22;56125;52.242;4.756;2023-07-29T15:44:29;22.00;66.80
69054;DHT22;56125;52.242;4.756;2023-07-29T15:49:30;22.00;67.10
69054;DHT22;56125;52.242;4.756;2023-07-29T15:54:31;22.00;67.00
69054;DHT22;56125;52.242;4.756;2023-07-29T15:59:32;22.00;67.30
69054;DHT22;56125;52.242;4.756;2023-07-29T16:04:33;22.00;68.10
69054;DHT22;56125;52.242;4.756;2023-07-29T16:09:34;22.00;67.30
69054;DHT22;56125;52.242;4.756;2023-07-29T16:14:35;22.00;67.30
69054;DHT22;56125;52.242;4.756;2023-07-29T16:19:55;22.00;67.10
69054;DHT22;56125;52.242;4.756;2023-07-29T16:24:58;22.00;66.90
69054;DHT22;56125;52.242;4.756;2023-07-29T16:30:00;22.00;66.60
69054;DHT22;56125;52.242;4.756;2023-07-29T16:35:02;22.00;66.30
69054;DHT22;56125;52.242;4.756;2023-07-29T16:40:04;22.00;65.80
69054;DHT22;56125;52.242;4.756;2023-07-29T16:45:06;22.00;65.10
69054;DHT22;56125;52.242;4.756;2023-07-29T16:50:07;22.00;64.90
69054;DHT22;56125;52.242;4.756;2023-07-29T16:55:09;22.00;64.80
69054;DHT22;56125;52.242;4.756;2023-07-29T17:00:10;22.00;65.10
69054;DHT22;56125;52.242;4.756;2023-07-29T17:05:11;22.00;65.50
69054;DHT22;56125;52.242;4.756;2023-07-29T17:10:12;22.00;65.70
69054;DHT22;56125;52.242;4.756;2023-07-29T17:15:13;22.00;64.70
69054;DHT22;56125;52.242;4.756;2023-07-29T17:20:14;21.90;64.30
69054;DHT22;56125;52.242;4.756;2023-07-29T17:25:16;22.00;64.30
69054;DHT22;56125;52.242;4.756;2023-07-29T17:30:18;22.00;63.80
69054;DHT22;56125;52.242;4.756;2023-07-29T17:35:19;21.90;64.00
69054;DHT22;56125;52.242;4.756;2023-07-29T17:40:20;21.90;63.70
69054;DHT22;56125;52.242;4.756;2023-07-29T17:45:21;21.90;63.30
69054;DHT22;56125;52.242;4.756;2023-07-29T17:50:22;22.00;63.20
69054;DHT22;56125;52.242;4.756;2023-07-29T17:55:23;21.90;63.50
69054;DHT22;56125;52.242;4.756;2023-07-29T18:00:24;21.90;63.00
69054;DHT22;56125;52.242;4.756;2023-07-29T18:05:26;21.90;62.70
69054;DHT22;56125;52.242;4.756;2023-07-29T18:10:27;21.90;63.40
69054;DHT22;56125;52.242;4.756;2023-07-29T18:15:29;21.90;63.50
69054;DHT22;56125;52.242;4.756;2023-07-29T18:20:30;21.90;63.20
69054;DHT22;56125;52.242;4.756;2023-07-29T18:25:32;21.90;63.80
69054;DHT22;56125;52.242;4.756;2023-07-29T18:30:34;21.90;63.70
69054;DHT22;56125;52.242;4.756;2023-07-29T18:35:40;21.90;64.10
69054;DHT22;56125;52.242;4.756;2023-07-29T18:40:41;21.90;63.70
69054;DHT22;56125;52.242;4.756;2023-07-29T18:45:42;21.90;63.30
69054;DHT22;56125;52.242;4.756;2023-07-29T18:50:43;21.90;63.10
69054;DHT22;56125;52.242;4.756;2023-07-29T18:55:44;21.80;63.60
69054;DHT22;56125;52.242;4.756;2023-07-29T19:00:46;21.80;63.70
69054;DHT22;56125;52.242;4.756;2023-07-29T19:05:48;21.80;63.70
69054;DHT22;56125;52.242;4.756;2023-07-29T19:10:49;21.80;63.60
69054;DHT22;56125;52.242;4.756;2023-07-29T19:15:51;21.80;64.30
69054;DHT22;56125;52.242;4.756;2023-07-29T19:20:53;21.80;63.70
69054;DHT22;56125;52.242;4.756;2023-07-29T19:25:54;21.80;64.00
69054;DHT22;56125;52.242;4.756;2023-07-29T19:30:55;21.80;63.60
69054;DHT22;56125;52.242;4.756;2023-07-29T19:35:57;21.80;64.00
69054;DHT22;56125;52.242;4.756;2023-07-29T19:41:01;21.80;63.80
69054;DHT22;56125;52.242;4.756;2023-07-29T19:46:02;21.80;63.90
69054;DHT22;56125;52.242;4.756;2023-07-29T19:51:04;21.80;64.50
69054;DHT22;56125;52.242;4.756;2023-07-29T19:56:05;21.80;64.60
69054;DHT22;56125;52.242;4.756;2023-07-29T20:01:06;21.80;64.70
69054;DHT22;56125;52.242;4.756;2023-07-29T20:06:07;21.80;64.50
69054;DHT22;56125;52.242;4.756;2023-07-29T20:11:08;21.80;64.50
69054;DHT22;56125;52.242;4.756;2023-07-29T20:16:09;21.70;64.50
69054;DHT22;56125;52.242;4.756;2023-07-29T20:21:11;21.80;64.50
69054;DHT22;56125;52.242;4.756;2023-07-29T20:26:12;21.70;64.60
69054;DHT22;56125;52.242;4.756;2023-07-29T20:31:13;21.70;64.70
69054;DHT22;56125;52.242;4.756;2023-07-29T20:36:14;21.70;64.60
69054;DHT22;56125;52.242;4.756;2023-07-29T20:41:15;21.70;64.60
69054;DHT22;56125;52.242;4.756;2023-07-29T20:46:20;21.70;64.60
69054;DHT22;56125;52.242;4.756;2023-07-29T20:51:21;21.70;64.60
69054;DHT22;56125;52.242;4.756;2023-07-29T20:56:22;21.70;64.60
69054;DHT22;56125;52.242;4.756;2023-07-29T21:01:23;21.70;65.00
69054;DHT22;56125;52.242;4.756;2023-07-29T21:06:24;21.70;64.60
69054;DHT22;56125;52.242;4.756;2023-07-29T21:11:25;22.00;64.90
69054;DHT22;56125;52.242;4.756;2023-07-29T21:16:26;21.50;64.60
69054;DHT22;56125;52.242;4.756;2023-07-29T21:21:27;21.30;64.60
69054;DHT22;56125;52.242;4.756;2023-07-29T21:26:28;21.70;64.90
69054;DHT22;56125;52.242;4.756;2023-07-29T21:31:29;21.70;65.10
69054;DHT22;56125;52.242;4.756;2023-07-29T21:36:30;21.70;64.80
69054;DHT22;56125;52.242;4.756;2023-07-29T21:41:31;21.60;64.60
69054;DHT22;56125;52.242;4.756;2023-07-29T21:46:35;21.70;64.60
69054;DHT22;56125;52.242;4.756;2023-07-29T21:51:36;21.70;64.60
69054;DHT22;56125;52.242;4.756;2023-07-29T21:56:37;21.70;64.60
69054;DHT22;56125;52.242;4.756;2023-07-29T22:01:38;21.60;64.50
69054;DHT22;56125;52.242;4.756;2023-07-29T22:06:39;21.60;64.50
69054;DHT22;56125;52.242;4.756;2023-07-29T22:11:40;21.60;64.50
69054;DHT22;56125;52.242;4.756;2023-07-29T22:16:41;21.60;64.50
69054;DHT22;56125;52.242;4.756;2023-07-29T22:21:42;21.60;64.50
69054;DHT22;56125;52.242;4.756;2023-07-29T22:26:43;21.60;64.50
69054;DHT22;56125;52.242;4.756;2023-07-29T22:31:47;21.60;64.50
69054;DHT22;56125;52.242;4.756;2023-07-29T22:36:48;21.60;64.40
69054;DHT22;56125;52.242;4.756;2023-07-29T22:41:49;21.60;64.30
69054;DHT22;56125;52.242;4.756;2023-07-29T22:46:50;21.60;64.30
69054;DHT22;56125;52.242;4.756;2023-07-29T22:51:51;21.60;64.20
69054;DHT22;56125;52.242;4.756;2023-07-29T22:56:52;21.60;64.10
69054;DHT22;56125;52.242;4.756;2023-07-29T23:01:53;21.60;63.30
69054;DHT22;56125;52.242;4.756;2023-07-29T23:06:54;21.60;64.10
69054;DHT22;56125;52.242;4.756;2023-07-29T23:11:55;21.50;64.10
69054;DHT22;56125;52.242;4.756;2023-07-29T23:16:56;21.90;64.30
69054;DHT22;56125;52.242;4.756;2023-07-29T23:21:57;21.50;64.10
69054;DHT22;56125;52.242;4.756;2023-07-29T23:26:58;21.50;64.20
69054;DHT22;56125;52.242;4.756;2023-07-29T23:31:59;21.50;64.00
69054;DHT22;56125;52.242;4.756;2023-07-29T23:37:00;21.60;64.10
69054;DHT22;56125;52.242;4.756;2023-07-29T23:42:01;21.50;64.20
69054;DHT22;56125;52.242;4.756;2023-07-29T23:47:03;21.50;64.10
69054;DHT22;56125;52.242;4.756;2023-07-29T23:52:04;21.60;64.30
69054;DHT22;56125;52.242;4.756;2023-07-29T23:57:06;21.50;64.10
